Mount Uniacke, Canada
Current Conditions -  °F | °C
As of 10:00 AM on Friday 24 Oct 2014 (Local Time) from CYHZ Reporting Station
Drizzle Drizzle  
Wind Chill: 12°   Ceiling: 200
Heat Index: 12°   Visibility: 0.75mi
Dew Point: 12°   Wind: 7mph
Humidity: 100%   Direction: 60°ENE
Pressure: 29.55"   Gusts: NA
Location:  44.88°N, 63.83°W
Report Text: CYHZ 241300Z 06006KT 3/4SM R14/P6000FT/N -DZ BR VV002 12/12 A2955 RMK FG8 SLP009 DENSITY ALT 600FT
Loading
Personal Weather Stations






























Interactive Weather Map
Tropical Storm Tracking
New forecast layout! Learn more

10-Day Weather Forecast

Advertisements
Track Severe Weather on mobile